• Join FlightAware (Why Join?)
  • Login
  • US Flag 
04:30PM EDT


 

Airport Tracker/Info


-or-


 

Live Flight TrackerFlight Track Log ✈ ASQ6073 ✈ 05-May-2013 ✈ KRAP - KDEN

Flight Track Log - Related Links

Times and Time Zones

All times are in EDT time to prevent confusion due to time zone crossing. See the ASQ6073 flight status page for this flight to view local times or setup timezone preferences in your user account.

Time Position Orientation Groundspeed Altitude Reporting Facility
EDT Latitude Longitude Course Direction KTS MPH feet Rate Location/Type
09:23AM 44.0603 -103.0700 296° West 159 183 3,900  Level Denver Center
09:24AM 44.0861 -103.1453 296° West 198 228 6,500 2,340 Climbing Denver Center
09:25AM 44.0578 -103.2017 235° Southwest 234 269 8,700 1,800 Climbing Denver Center
09:26AM 43.9942 -103.2792 221° Southwest 274 315 10,100 600 Climbing Denver Center
09:27AM 43.9239 -103.3583 219° Southwest 296 341 10,000 -60 Descending Denver Center
09:28AM 43.8689 -103.4158 217° Southwest 297 342 10,000  Level Denver Center
09:29AM 43.8453 -103.5356 255° West 293 337 10,100 840 Climbing Denver Center
09:30AM 43.7833 -103.5783 207° Southwest 301 346 11,700 1,680 Climbing Denver Center
09:31AM 43.6989 -103.5519 167° South 313 360 13,400 1,440 Climbing Denver Center
09:32AM 43.6050 -103.5403 175° South 337 388 14,700 1,560 Climbing Denver Center
09:33AM 43.4897 -103.5275 175° South 361 415 16,600 1,560 Climbing Denver Center
09:34AM 43.3886 -103.5236 178° South 375 432 17,900 1,440 Climbing Denver Center
09:35AM 43.2861 -103.5194 178° South 381 438 19,600 1,980 Climbing Denver Center
09:36AM 43.1681 -103.5156 179° South 381 438 21,900 1,860 Climbing Denver Center
09:37AM 43.0678 -103.5142 179° South 376 433 23,500 1,500 Climbing Denver Center
09:39AM 42.9667 -103.5100 178° South 378 435 25,300 1,920 Climbing Denver Center
09:40AM 42.8361 -103.5067 179° South 368 423 27,900 2,100 Climbing Denver Center
09:41AM 42.7406 -103.5031 178° South 361 415 29,600 1,620 Climbing Denver Center
09:42AM 42.6300 -103.5014 179° South 354 407 31,200 1,140 Climbing Denver Center
09:43AM 42.5328 -103.4989 179° South 360 414 32,000 360 Climbing Denver Center
09:44AM 42.4275 -103.4942 178° South 386 444 32,000  Level Denver Center
09:45AM 42.3142 -103.4931 180° South 413 475 32,000  Level Denver Center
09:46AM 42.1739 -103.4892 179° South 440 506 32,000  Level Denver Center
09:47AM 42.0544 -103.4861 179° South 446 513 32,000  Level Denver Center
09:48AM 41.9356 -103.4833 179° South 445 512 32,000  Level Denver Center
09:49AM 41.7956 -103.4836 180° South 447 514 32,000  Level Denver Center
09:50AM 41.6764 -103.4883 182° South 446 513 32,000  Level Denver Center
09:51AM 41.5567 -103.4911 181° South 448 516 32,000  Level Denver Center
09:52AM 41.4175 -103.4947 181° South 448 516 32,000  Level Denver Center
09:53AM 41.2986 -103.4981 181° South 447 514 32,000  Level Denver Center
09:54AM 41.1611 -103.5017 181° South 443 510 32,000  Level Denver Center
09:55AM 41.0417 -103.5042 181° South 447 514 32,000 -300 Level Denver Center
09:56AM 40.9147 -103.5236 187° South 439 505 31,400 -1,740 Descending Denver Center
09:57AM 40.8153 -103.6036 211° Southwest 416 479 28,500 -2,520 Descending Denver Center
09:58AM 40.7244 -103.6839 214° Southwest 393 452 26,300 -2,160 Descending Denver Center
09:59AM 40.6364 -103.7606 213° Southwest 376 433 24,100 -2,160 Descending Denver Center
10:00AM 40.5483 -103.8364 213° Southwest 376 433 21,900 -2,160 Descending Denver Center
10:01AM 40.4636 -103.9114 214° Southwest 365 420 19,700 -2,100 Descending Denver Center
10:02AM 40.3833 -104.0069 222° Southwest 360 414 17,700 -1,980 Descending Denver Center
10:03AM 40.3456 -104.1311 248° West 368 423 15,700 -1,980 Descending Denver Center
10:04AM 40.3058 -104.2528 247° West 365 420 13,700 -1,800 Descending Denver Center
10:05AM 40.2656 -104.3744 247° West 364 419 12,100 -1,320 Descending Denver Center
10:06AM 40.2233 -104.4994 246° West 351 404 11,100 -600 Descending Denver Center
10:07AM 40.1869 -104.6083 246° West 331 381 11,000 -660 Descending Denver Center
10:08AM 40.1131 -104.6686 212° Southwest 310 357 9,800 -1,560 Descending Denver Center
10:09AM 40.0342 -104.6856 189° South 269 310 7,900 -1,500 Descending Denver Center
10:10AM 39.9722 -104.6858 180° South 228 262 6,800 -1,020 Descending Denver Center
10:11AM 39.9275 -104.6861 180° South 166 191 5,900 -780 Descending Denver Center
10:12AM 39.8867 -104.6869 181° South 149 171 5,300 -600 Descending Denver Center
10:14AM 39.8617 -104.6732 180° South  Level Estimated
10:21AM 39.8617 -104.6732 180° South  Level Estimated
10:22AM 39.8617 -104.6732 180° South  Level Estimated
10:23AM 39.8617 -104.6732 180° South  Level Estimated